Time;durP1;ratioP1;P1;durP2;ratioP2;P2;SDS_P1;SDS_P2;PMS_P1;PMS_P2;Temp;Humidity;BMP_temperature;BMP_pressure;BME280_temperature;BME280_humidity;BME280_pressure;Samples;Min_cycle;Max_cycle;Signal;HPM_P1;HPM_P2
2023/10/31 00:02:29;;;;;;;2.77;1.47;;;;;;;;;;5932558;29;20454;-81
2023/10/31 00:05:30;;;;;;;1.83;1.50;;;;;;;;;;5923770;29;20051;-83
2023/10/31 00:08:32;;;;;;;1.30;1.20;;;;;;;;;;5917804;29;20043;-83
2023/10/31 00:11:34;;;;;;;1.48;1.00;;;;;;;;;;5912608;29;20139;-83
2023/10/31 00:14:36;;;;;;;1.63;1.20;;;;;;;;;;5940937;29;20039;-81
2023/10/31 00:17:38;;;;;;;1.45;1.20;;;;;;;;;;5946612;29;20051;-82
2023/10/31 00:20:40;;;;;;;2.08;0.93;;;;;;;;;;5918815;29;20051;-82
2023/10/31 00:23:48;;;;;;;2.90;1.10;;;;;;;;;;5936310;29;20055;-83
2023/10/31 00:26:51;;;;;;;1.00;0.85;;;;;;;;;;5936216;29;20063;-82
2023/10/31 00:29:52;;;;;;;0.98;0.80;;;;;;;;;;5919836;29;20067;-82
2023/10/31 00:32:54;;;;;;;1.88;0.60;;;;;;;;;;5915987;29;20178;-83
2023/10/31 00:35:56;;;;;;;1.33;0.85;;;;;;;;;;5925557;29;20083;-83
2023/10/31 00:38:57;;;;;;;0.80;0.70;;;;;;;;;;5937702;29;20046;-82
2023/10/31 00:41:59;;;;;;;1.40;0.60;;;;;;;;;;5933710;29;20068;-82
2023/10/31 00:45:02;;;;;;;1.57;0.80;;;;;;;;;;5928255;29;20201;-82
2023/10/31 00:48:03;;;;;;;0.63;0.60;;;;;;;;;;5923025;29;20457;-82
2023/10/31 00:51:05;;;;;;;1.63;0.38;;;;;;;;;;5937359;29;20059;-82
2023/10/31 00:54:07;;;;;;;0.45;0.45;;;;;;;;;;5943918;29;20062;-81
2023/10/31 00:57:09;;;;;;;0.52;0.50;;;;;;;;;;5934992;29;20049;-81
2023/10/31 01:00:11;;;;;;;1.45;0.60;;;;;;;;;;5927915;29;20055;-80
2023/10/31 01:03:13;;;;;;;0.60;0.60;;;;;;;;;;5939972;29;20079;-81
2023/10/31 01:06:15;;;;;;;1.10;0.60;;;;;;;;;;5924556;29;20067;-82
2023/10/31 01:09:17;;;;;;;0.60;0.60;;;;;;;;;;5938506;29;20052;-81
2023/10/31 01:12:18;;;;;;;0.60;0.50;;;;;;;;;;5937191;29;20459;-81
2023/10/31 01:15:20;;;;;;;0.50;0.50;;;;;;;;;;5936223;29;20056;-82
2023/10/31 01:18:22;;;;;;;0.50;0.50;;;;;;;;;;5907261;29;20074;-82
2023/10/31 01:21:24;;;;;;;0.50;0.50;;;;;;;;;;5936833;29;20051;-79
2023/10/31 01:24:26;;;;;;;0.60;0.60;;;;;;;;;;5914902;29;20055;-81
2023/10/31 01:27:27;;;;;;;1.45;0.55;;;;;;;;;;5949206;29;20063;-81
2023/10/31 01:30:29;;;;;;;0.65;0.65;;;;;;;;;;5946277;29;20055;-83
2023/10/31 01:33:31;;;;;;;0.50;0.50;;;;;;;;;;5913776;29;20571;-84
2023/10/31 01:36:33;;;;;;;0.63;0.63;;;;;;;;;;5945519;29;20707;-80
2023/10/31 01:39:38;;;;;;;0.40;0.40;;;;;;;;;;5935090;29;20039;-82
2023/10/31 01:42:39;;;;;;;0.70;0.30;;;;;;;;;;5946002;29;20051;-84
2023/10/31 01:45:41;;;;;;;0.65;0.30;;;;;;;;;;5953876;29;20079;-81
2023/10/31 01:48:43;;;;;;;0.30;0.30;;;;;;;;;;5931712;29;20126;-83
2023/10/31 01:51:45;;;;;;;1.35;0.40;;;;;;;;;;5946577;29;20075;-83
2023/10/31 01:54:47;;;;;;;0.40;0.40;;;;;;;;;;5948918;29;20055;-83
2023/10/31 01:57:49;;;;;;;1.75;0.30;;;;;;;;;;5931805;29;20055;-83
2023/10/31 02:00:51;;;;;;;0.40;0.35;;;;;;;;;;5926171;29;20399;-83
2023/10/31 02:03:53;;;;;;;0.30;0.30;;;;;;;;;;5930209;29;20055;-82
2023/10/31 02:06:55;;;;;;;0.30;0.30;;;;;;;;;;5936303;29;20080;-81
2023/10/31 02:09:57;;;;;;;1.00;0.40;;;;;;;;;;5935077;29;20071;-82
2023/10/31 02:13:10;;;;;;;0.32;0.30;;;;;;;;;;5931601;29;20047;-83
2023/10/31 02:16:12;;;;;;;0.45;0.32;;;;;;;;;;5928001;29;20059;-81
2023/10/31 02:19:19;;;;;;;0.63;0.30;;;;;;;;;;5938102;29;20055;-81
2023/10/31 02:22:21;;;;;;;0.40;0.40;;;;;;;;;;5916126;29;20054;-81
2023/10/31 02:25:23;;;;;;;2.10;0.40;;;;;;;;;;5940333;29;20051;-79
2023/10/31 02:28:27;;;;;;;0.40;0.40;;;;;;;;;;5946913;29;20092;-80
2023/10/31 02:31:30;;;;;;;0.30;0.30;;;;;;;;;;5947557;29;20055;-80
2023/10/31 02:34:32;;;;;;;0.47;0.33;;;;;;;;;;5928762;29;20070;-80
2023/10/31 02:37:34;;;;;;;0.57;0.40;;;;;;;;;;5938079;29;20059;-80
2023/10/31 02:40:36;;;;;;;0.32;0.32;;;;;;;;;;5930851;29;20108;-81
2023/10/31 02:43:39;;;;;;;1.00;0.35;;;;;;;;;;5913278;29;20147;-81
2023/10/31 02:46:41;;;;;;;0.30;0.30;;;;;;;;;;5920103;29;20055;-81
2023/10/31 02:49:43;;;;;;;1.40;0.30;;;;;;;;;;5942064;29;20051;-81
2023/10/31 02:52:45;;;;;;;0.30;0.30;;;;;;;;;;5920354;29;20052;-81
2023/10/31 02:55:47;;;;;;;1.00;0.40;;;;;;;;;;5932770;29;20066;-81
2023/10/31 02:58:48;;;;;;;1.65;0.80;;;;;;;;;;5935184;29;20051;-81
2023/10/31 03:01:50;;;;;;;1.17;0.30;;;;;;;;;;5922557;29;20055;-82
2023/10/31 03:04:52;;;;;;;2.88;0.55;;;;;;;;;;5923472;29;20190;-81
2023/10/31 03:07:54;;;;;;;0.40;0.40;;;;;;;;;;5931279;29;20063;-81
2023/10/31 03:10:56;;;;;;;1.35;0.88;;;;;;;;;;5920415;29;20051;-82
2023/10/31 03:13:58;;;;;;;3.23;0.60;;;;;;;;;;5908851;29;20055;-80
2023/10/31 03:17:00;;;;;;;0.65;0.60;;;;;;;;;;5916229;29;20051;-81
2023/10/31 03:20:02;;;;;;;1.30;0.70;;;;;;;;;;5910881;29;20047;-80
2023/10/31 03:23:04;;;;;;;1.02;0.60;;;;;;;;;;5936407;29;20046;-79
2023/10/31 03:26:09;;;;;;;1.77;0.80;;;;;;;;;;5955468;29;20086;-79
2023/10/31 03:29:10;;;;;;;3.03;0.55;;;;;;;;;;5935709;29;20515;-81
2023/10/31 03:32:14;;;;;;;1.87;0.80;;;;;;;;;;5936169;29;20079;-81
2023/10/31 03:35:16;;;;;;;;;;;;;;;;;;5933039;29;20458;-80
2023/10/31 03:38:19;;;;;;;1.05;0.50;;;;;;;;;;5933660;29;19929;-80
2023/10/31 03:41:22;;;;;;;1.30;0.45;;;;;;;;;;5914974;29;20055;-81
2023/10/31 03:44:25;;;;;;;2.22;0.63;;;;;;;;;;5924450;29;20427;-81
2023/10/31 03:47:26;;;;;;;1.05;0.50;;;;;;;;;;5927157;29;20751;-81
2023/10/31 03:50:28;;;;;;;1.67;0.45;;;;;;;;;;5915789;29;20112;-80
2023/10/31 03:53:30;;;;;;;1.35;0.40;;;;;;;;;;5912989;29;20047;-81
2023/10/31 03:56:43;;;;;;;2.58;0.63;;;;;;;;;;5927017;29;20048;-81
2023/10/31 03:59:44;;;;;;;2.33;0.50;;;;;;;;;;5914394;29;20058;-81
2023/10/31 04:02:46;;;;;;;0.77;0.45;;;;;;;;;;5908736;29;20159;-81
2023/10/31 04:05:49;;;;;;;3.28;0.40;;;;;;;;;;5926918;29;20076;-81
2023/10/31 04:08:50;;;;;;;1.42;0.50;;;;;;;;;;5928625;29;20047;-81
2023/10/31 04:11:52;;;;;;;0.90;0.43;;;;;;;;;;5928289;29;20146;-81
2023/10/31 04:14:54;;;;;;;0.70;0.50;;;;;;;;;;5913316;29;20491;-80
2023/10/31 04:17:56;;;;;;;0.95;0.40;;;;;;;;;;5924943;29;20054;-80
2023/10/31 04:20:57;;;;;;;0.50;0.45;;;;;;;;;;5929313;29;20062;-81
2023/10/31 04:23:59;;;;;;;0.35;0.30;;;;;;;;;;5913415;29;20075;-81
2023/10/31 04:27:01;;;;;;;1.60;0.40;;;;;;;;;;5929118;29;20062;-81
2023/10/31 04:30:03;;;;;;;0.90;0.52;;;;;;;;;;5932665;29;20503;-80
2023/10/31 04:33:05;;;;;;;0.82;0.30;;;;;;;;;;5912008;29;20526;-81
2023/10/31 04:36:07;;;;;;;2.97;0.38;;;;;;;;;;5927717;29;20054;-81
2023/10/31 04:39:09;;;;;;;2.90;0.70;;;;;;;;;;5929242;29;20054;-81
2023/10/31 04:42:11;;;;;;;1.30;0.30;;;;;;;;;;5899304;29;20788;-81
2023/10/31 04:45:12;;;;;;;0.40;0.40;;;;;;;;;;5914901;29;20147;-81
2023/10/31 04:48:14;;;;;;;1.60;0.70;;;;;;;;;;5924859;29;20055;-80
2023/10/31 04:51:16;;;;;;;0.77;0.50;;;;;;;;;;5906972;29;20055;-81
2023/10/31 04:54:18;;;;;;;1.55;0.80;;;;;;;;;;5900161;29;20419;-80
2023/10/31 04:57:19;;;;;;;1.27;1.08;;;;;;;;;;5926525;29;20436;-80
2023/10/31 05:00:22;;;;;;;2.60;0.70;;;;;;;;;;5927684;29;20059;-81
2023/10/31 05:03:24;;;;;;;0.93;0.65;;;;;;;;;;5918017;29;20426;-81
2023/10/31 05:06:27;;;;;;;0.50;0.45;;;;;;;;;;5933211;29;20048;-81
2023/10/31 05:09:28;;;;;;;0.53;0.43;;;;;;;;;;5928085;29;20043;-81
2023/10/31 05:12:30;;;;;;;4.15;0.70;;;;;;;;;;5924871;29;20052;-82
2023/10/31 05:15:32;;;;;;;1.42;0.40;;;;;;;;;;5915571;29;20051;-80
2023/10/31 05:18:36;;;;;;;0.30;0.30;;;;;;;;;;5916942;29;20070;-82
2023/10/31 05:21:38;;;;;;;0.85;0.60;;;;;;;;;;5932724;29;20459;-82
2023/10/31 05:24:40;;;;;;;0.50;0.50;;;;;;;;;;5908003;29;20051;-83
2023/10/31 05:27:41;;;;;;;3.20;0.40;;;;;;;;;;5930744;29;20070;-82
2023/10/31 05:30:43;;;;;;;0.88;0.57;;;;;;;;;;5917164;29;20060;-80
2023/10/31 05:33:45;;;;;;;0.50;0.50;;;;;;;;;;5917382;29;20053;-81
2023/10/31 05:36:48;;;;;;;2.63;0.80;;;;;;;;;;5932406;29;20055;-82
2023/10/31 05:39:49;;;;;;;0.52;0.40;;;;;;;;;;5921493;29;20062;-81
2023/10/31 05:42:51;;;;;;;0.80;0.43;;;;;;;;;;5941507;29;20066;-82
2023/10/31 05:45:53;;;;;;;0.80;0.50;;;;;;;;;;5930989;29;20427;-83
2023/10/31 05:48:55;;;;;;;1.40;0.40;;;;;;;;;;5932586;29;20059;-81
2023/10/31 05:51:56;;;;;;;0.40;0.40;;;;;;;;;;5922380;29;20055;-81
2023/10/31 05:54:58;;;;;;;0.73;0.57;;;;;;;;;;5922997;29;20326;-82
2023/10/31 05:58:00;;;;;;;0.50;0.50;;;;;;;;;;5930559;29;20055;-82
2023/10/31 06:01:02;;;;;;;1.40;0.77;;;;;;;;;;5939059;29;20054;-81
2023/10/31 06:04:04;;;;;;;1.23;0.50;;;;;;;;;;5918118;29;20288;-80
2023/10/31 06:07:06;;;;;;;1.23;1.02;;;;;;;;;;5933084;29;20089;-82
2023/10/31 06:10:08;;;;;;;0.40;0.40;;;;;;;;;;5932492;29;20055;-80
2023/10/31 06:13:10;;;;;;;0.85;0.52;;;;;;;;;;5923254;29;20054;-80
2023/10/31 06:16:12;;;;;;;0.50;0.50;;;;;;;;;;5938790;29;20058;-82
2023/10/31 06:19:14;;;;;;;1.73;0.60;;;;;;;;;;5918505;29;20065;-81
2023/10/31 06:22:16;;;;;;;1.10;0.60;;;;;;;;;;5898883;29;20138;-81
2023/10/31 06:25:17;;;;;;;1.40;0.60;;;;;;;;;;5938194;29;20063;-80
2023/10/31 06:28:19;;;;;;;1.88;0.68;;;;;;;;;;5948644;29;20035;-81
2023/10/31 06:31:21;;;;;;;0.70;0.60;;;;;;;;;;5929979;29;20119;-80
2023/10/31 06:34:23;;;;;;;0.47;0.47;;;;;;;;;;5923917;29;20825;-80
2023/10/31 06:37:25;;;;;;;1.00;0.68;;;;;;;;;;5921258;29;20081;-80
2023/10/31 06:40:27;;;;;;;0.50;0.50;;;;;;;;;;5931156;29;20111;-80
2023/10/31 06:43:29;;;;;;;0.95;0.50;;;;;;;;;;5938397;29;20059;-81
2023/10/31 06:46:35;;;;;;;0.68;0.60;;;;;;;;;;5926274;29;20058;-81
2023/10/31 06:49:37;;;;;;;2.72;0.47;;;;;;;;;;5923322;29;20076;-82
2023/10/31 06:52:39;;;;;;;1.42;0.65;;;;;;;;;;5933768;29;20396;-82
2023/10/31 06:55:41;;;;;;;0.80;0.50;;;;;;;;;;5924073;29;20636;-83
2023/10/31 06:58:43;;;;;;;0.60;0.50;;;;;;;;;;5920429;29;20059;-82
2023/10/31 07:01:46;;;;;;;0.63;0.50;;;;;;;;;;5934970;29;20054;-82
2023/10/31 07:04:49;;;;;;;1.45;0.70;;;;;;;;;;5924540;29;20047;-83
2023/10/31 07:07:51;;;;;;;1.67;0.70;;;;;;;;;;5928127;29;20047;-82
2023/10/31 07:10:52;;;;;;;0.82;0.60;;;;;;;;;;5932042;29;20062;-83
2023/10/31 07:13:54;;;;;;;0.57;0.57;;;;;;;;;;5938653;29;20070;-83
2023/10/31 07:16:56;;;;;;;1.40;0.50;;;;;;;;;;5926494;29;20538;-82
2023/10/31 07:19:58;;;;;;;0.70;0.50;;;;;;;;;;5934510;29;20054;-81
2023/10/31 07:23:00;;;;;;;1.00;0.60;;;;;;;;;;5908567;29;20120;-82
2023/10/31 07:26:02;;;;;;;0.30;0.30;;;;;;;;;;5923082;29;20190;-82
2023/10/31 07:29:04;;;;;;;0.60;0.55;;;;;;;;;;5934829;29;20051;-82
2023/10/31 07:32:09;;;;;;;0.77;0.47;;;;;;;;;;5934218;29;20051;-83
2023/10/31 07:35:12;;;;;;;0.65;0.60;;;;;;;;;;5932224;29;20047;-83
2023/10/31 07:38:14;;;;;;;0.88;0.60;;;;;;;;;;5918049;29;20503;-82
2023/10/31 07:41:16;;;;;;;1.00;0.50;;;;;;;;;;5932210;29;20055;-83
2023/10/31 07:44:18;;;;;;;1.52;0.50;;;;;;;;;;5923551;29;20047;-83
2023/10/31 07:47:20;;;;;;;0.45;0.45;;;;;;;;;;5938222;29;20063;-82
2023/10/31 07:50:22;;;;;;;2.38;0.50;;;;;;;;;;5921092;29;20051;-83
2023/10/31 07:53:23;;;;;;;3.88;0.80;;;;;;;;;;5930441;29;20571;-81
2023/10/31 07:56:25;;;;;;;1.23;0.80;;;;;;;;;;5937185;29;20047;-82
2023/10/31 07:59:27;;;;;;;0.80;0.60;;;;;;;;;;5954304;29;20254;-82
2023/10/31 08:02:29;;;;;;;0.85;0.80;;;;;;;;;;5917248;29;20395;-82
2023/10/31 08:05:31;;;;;;;0.85;0.70;;;;;;;;;;5923402;29;20059;-82
2023/10/31 08:08:34;;;;;;;0.93;0.73;;;;;;;;;;5935993;29;20154;-81
2023/10/31 08:11:35;;;;;;;1.63;0.73;;;;;;;;;;5902933;29;20071;-82
2023/10/31 08:14:37;;;;;;;0.70;0.63;;;;;;;;;;5916138;29;20499;-83
2023/10/31 08:17:39;;;;;;;2.78;0.75;;;;;;;;;;5934470;29;20439;-83
2023/10/31 08:20:43;;;;;;;1.35;0.98;;;;;;;;;;5916764;29;20051;-82
2023/10/31 08:23:46;;;;;;;2.70;0.80;;;;;;;;;;5899924;29;20048;-83
2023/10/31 08:26:48;;;;;;;1.20;0.55;;;;;;;;;;5919087;29;20093;-83
2023/10/31 08:29:49;;;;;;;1.40;0.80;;;;;;;;;;5910163;29;20051;-84
2023/10/31 08:32:51;;;;;;;1.75;0.80;;;;;;;;;;5932681;29;20085;-82
2023/10/31 08:35:54;;;;;;;1.30;0.70;;;;;;;;;;5921419;29;20059;-84
2023/10/31 08:38:55;;;;;;;2.20;0.65;;;;;;;;;;5906016;29;20059;-82
2023/10/31 08:41:59;;;;;;;1.83;0.93;;;;;;;;;;5928157;29;20051;-82
2023/10/31 08:45:00;;;;;;;;;;;;;;;;;;5914165;29;20142;-83
2023/10/31 08:48:03;;;;;;;0.82;0.80;;;;;;;;;;5936593;29;20300;-83
2023/10/31 08:51:04;;;;;;;1.65;0.60;;;;;;;;;;5916429;29;20813;-83
2023/10/31 08:54:06;;;;;;;1.23;0.70;;;;;;;;;;5931256;29;20047;-83
2023/10/31 08:57:08;;;;;;;1.63;0.77;;;;;;;;;;5920295;29;20074;-83
2023/10/31 09:00:10;;;;;;;1.25;0.80;;;;;;;;;;5937802;29;20392;-83
2023/10/31 09:03:12;;;;;;;0.40;0.40;;;;;;;;;;5920670;29;20062;-84
2023/10/31 09:06:14;;;;;;;1.63;0.70;;;;;;;;;;5932550;29;20062;-83
2023/10/31 09:09:16;;;;;;;1.15;0.68;;;;;;;;;;5919541;29;20047;-84
2023/10/31 09:12:18;;;;;;;1.20;0.93;;;;;;;;;;5938414;29;20051;-84
2023/10/31 09:15:21;;;;;;;1.80;0.77;;;;;;;;;;5915671;29;20056;-83
2023/10/31 09:18:22;;;;;;;;;;;;;;;;;;5918438;29;20077;-84
2023/10/31 09:21:24;;;;;;;2.10;0.90;;;;;;;;;;5917159;29;19937;-83
2023/10/31 09:24:26;;;;;;;1.20;0.80;;;;;;;;;;5952427;29;20051;-84
2023/10/31 09:27:28;;;;;;;1.30;1.00;;;;;;;;;;5957568;29;20046;-82
2023/10/31 09:30:30;;;;;;;1.58;0.77;;;;;;;;;;5935013;29;20070;-84
2023/10/31 09:33:32;;;;;;;2.42;1.00;;;;;;;;;;5911417;29;20192;-83
2023/10/31 09:36:37;;;;;;;0.88;0.88;;;;;;;;;;5932935;29;20047;-83
2023/10/31 09:39:39;;;;;;;1.55;0.85;;;;;;;;;;5913659;29;20097;-83
2023/10/31 09:42:41;;;;;;;3.72;1.05;;;;;;;;;;5919543;29;20047;-82
2023/10/31 09:45:45;;;;;;;2.65;0.90;;;;;;;;;;5940233;29;20070;-87
2023/10/31 09:48:51;;;;;;;2.42;0.93;;;;;;;;;;5911379;29;20079;-83
2023/10/31 09:51:53;;;;;;;3.47;1.13;;;;;;;;;;5926497;29;20052;-83
2023/10/31 09:54:55;;;;;;;2.38;0.93;;;;;;;;;;5930946;29;20142;-84
2023/10/31 09:57:58;;;;;;;2.78;0.70;;;;;;;;;;5937267;29;20199;-83
2023/10/31 10:01:00;;;;;;;1.63;0.97;;;;;;;;;;5930806;29;20059;-83
2023/10/31 10:04:02;;;;;;;4.20;1.10;;;;;;;;;;5922844;29;20066;-85
2023/10/31 10:07:05;;;;;;;1.63;0.85;;;;;;;;;;5931539;29;20098;-86
2023/10/31 10:10:10;;;;;;;2.08;1.10;;;;;;;;;;5928985;29;20059;-83
2023/10/31 10:13:12;;;;;;;0.90;0.60;;;;;;;;;;5915959;29;20051;-85
2023/10/31 10:16:31;;;;;;;1.40;0.95;;;;;;;;;;5933538;29;20421;-84
2023/10/31 10:19:33;;;;;;;3.80;1.00;;;;;;;;;;5932056;29;20066;-85
2023/10/31 10:22:44;;;;;;;1.00;0.80;;;;;;;;;;5915681;29;20054;-84
2023/10/31 10:25:49;;;;;;;1.75;0.80;;;;;;;;;;5925284;29;20302;-84
2023/10/31 10:28:51;;;;;;;0.98;0.80;;;;;;;;;;5931888;29;20597;-83
2023/10/31 10:31:57;;;;;;;1.75;0.90;;;;;;;;;;5903680;29;20063;-83
2023/10/31 10:34:58;;;;;;;1.95;0.77;;;;;;;;;;5944057;29;20793;-83
2023/10/31 10:38:03;;;;;;;1.95;1.02;;;;;;;;;;5930093;29;20044;-84
2023/10/31 10:41:07;;;;;;;1.67;0.80;;;;;;;;;;5930637;29;20059;-84
2023/10/31 10:44:13;;;;;;;0.60;0.60;;;;;;;;;;5925933;29;20055;-83
2023/10/31 10:47:15;;;;;;;2.15;0.70;;;;;;;;;;5932698;29;20427;-84
2023/10/31 10:50:29;;;;;;;1.30;1.03;;;;;;;;;;5923065;29;20507;-84
2023/10/31 10:53:37;;;;;;;2.15;0.90;;;;;;;;;;5932141;29;20051;-84
2023/10/31 10:56:46;;;;;;;3.72;1.20;;;;;;;;;;5936164;29;20059;-83
2023/10/31 10:59:51;;;;;;;1.20;0.85;;;;;;;;;;5930224;29;20051;-84
2023/10/31 11:02:53;;;;;;;1.00;0.90;;;;;;;;;;5931984;29;20056;-83
2023/10/31 11:05:55;;;;;;;2.80;0.90;;;;;;;;;;5936173;29;20047;-83
2023/10/31 11:08:58;;;;;;;1.10;0.80;;;;;;;;;;5923763;29;20051;-83
2023/10/31 11:12:00;;;;;;;3.72;0.85;;;;;;;;;;5932274;29;20055;-83
2023/10/31 11:15:03;;;;;;;2.55;1.45;;;;;;;;;;5930704;29;20054;-83
2023/10/31 11:18:05;;;;;;;0.70;0.70;;;;;;;;;;5902396;29;20122;-83
2023/10/31 11:21:07;;;;;;;1.23;0.90;;;;;;;;;;5920788;29;20054;-83
2023/10/31 11:24:10;;;;;;;1.70;0.70;;;;;;;;;;5919324;29;20054;-83
2023/10/31 11:27:11;;;;;;;2.92;0.70;;;;;;;;;;5924649;29;20209;-81
2023/10/31 11:30:30;;;;;;;3.90;0.70;;;;;;;;;;5911178;29;20196;-82
2023/10/31 11:33:32;;;;;;;0.68;0.63;;;;;;;;;;5938388;29;20376;-82
2023/10/31 11:36:35;;;;;;;0.80;0.60;;;;;;;;;;5920062;29;20139;-81
2023/10/31 11:39:39;;;;;;;2.85;0.70;;;;;;;;;;5904389;29;20058;-83
2023/10/31 11:42:42;;;;;;;2.47;0.70;;;;;;;;;;5938023;29;20055;-82
2023/10/31 11:45:47;;;;;;;0.80;0.60;;;;;;;;;;5934833;29;20427;-81
2023/10/31 11:48:51;;;;;;;0.75;0.60;;;;;;;;;;5918692;29;20055;-83
2023/10/31 11:51:53;;;;;;;1.55;0.85;;;;;;;;;;5933275;29;20083;-83
2023/10/31 11:54:56;;;;;;;1.23;0.70;;;;;;;;;;5932152;29;20083;-81
2023/10/31 11:57:57;;;;;;;2.03;0.80;;;;;;;;;;5918905;29;20058;-83
2023/10/31 12:01:04;;;;;;;8.35;1.02;;;;;;;;;;5932046;29;20059;-83
2023/10/31 12:04:06;;;;;;;0.70;0.60;;;;;;;;;;5928000;29;20119;-82
2023/10/31 12:07:09;;;;;;;0.70;0.60;;;;;;;;;;5936274;29;20051;-83
2023/10/31 12:10:12;;;;;;;1.98;0.60;;;;;;;;;;5920754;29;20058;-84
2023/10/31 12:13:14;;;;;;;1.70;0.80;;;;;;;;;;5917459;29;20431;-82
2023/10/31 12:16:15;;;;;;;1.40;0.65;;;;;;;;;;5915228;29;20055;-83
2023/10/31 12:19:20;;;;;;;0.85;0.57;;;;;;;;;;5941372;29;20050;-82
2023/10/31 12:22:22;;;;;;;0.77;0.65;;;;;;;;;;5959875;29;20057;-83
2023/10/31 12:25:25;;;;;;;1.33;0.80;;;;;;;;;;5938086;29;20051;-83
2023/10/31 12:28:28;;;;;;;2.88;1.30;;;;;;;;;;5925131;29;20512;-81
2023/10/31 12:31:31;;;;;;;1.00;0.70;;;;;;;;;;5904029;29;20048;-83
2023/10/31 12:34:34;;;;;;;1.80;1.00;;;;;;;;;;5940028;29;20185;-81
2023/10/31 12:37:37;;;;;;;1.50;0.50;;;;;;;;;;5920901;29;20392;-82
2023/10/31 12:40:46;;;;;;;3.33;0.60;;;;;;;;;;5930366;29;20516;-83
2023/10/31 12:43:48;;;;;;;2.55;0.52;;;;;;;;;;5935387;29;20043;-83
2023/10/31 12:46:51;;;;;;;3.63;1.10;;;;;;;;;;5934964;29;20599;-83
2023/10/31 12:50:13;;;;;;;2.15;0.98;;;;;;;;;;5926521;29;20089;-83
2023/10/31 12:53:23;;;;;;;3.58;1.10;;;;;;;;;;5927894;29;20100;-83
2023/10/31 12:56:58;;;;;;;4.70;0.60;;;;;;;;;;5930264;29;20138;-83
2023/10/31 13:00:00;;;;;;;2.75;0.73;;;;;;;;;;5911411;29;20043;-84
2023/10/31 13:03:11;;;;;;;1.13;0.55;;;;;;;;;;5903935;29;20071;-83
2023/10/31 13:06:15;;;;;;;0.85;0.50;;;;;;;;;;5925314;29;20567;-84
2023/10/31 13:09:18;;;;;;;0.70;0.70;;;;;;;;;;5924612;29;20192;-83
2023/10/31 13:12:20;;;;;;;0.80;0.50;;;;;;;;;;5927000;29;20138;-83
2023/10/31 13:15:23;;;;;;;0.70;0.60;;;;;;;;;;5932468;29;20058;-82
2023/10/31 13:18:25;;;;;;;2.88;0.75;;;;;;;;;;5910718;29;20074;-83
2023/10/31 13:21:27;;;;;;;2.15;0.60;;;;;;;;;;5925250;29;20055;-84
2023/10/31 13:24:29;;;;;;;1.98;0.57;;;;;;;;;;5922263;29;20052;-83
2023/10/31 13:27:32;;;;;;;0.90;0.55;;;;;;;;;;5918437;29;20058;-83
2023/10/31 13:30:33;;;;;;;1.67;0.65;;;;;;;;;;5931707;29;20055;-83
2023/10/31 13:33:35;;;;;;;1.17;0.43;;;;;;;;;;5912847;29;20047;-84
2023/10/31 13:36:38;;;;;;;1.23;0.43;;;;;;;;;;5908025;29;20649;-82
2023/10/31 13:39:40;;;;;;;0.50;0.50;;;;;;;;;;5928424;29;20043;-82
2023/10/31 13:42:41;;;;;;;1.95;0.50;;;;;;;;;;5925940;29;20055;-84
2023/10/31 13:45:43;;;;;;;1.15;0.60;;;;;;;;;;5900237;29;20062;-82
2023/10/31 13:48:46;;;;;;;1.00;0.50;;;;;;;;;;5920731;29;20050;-81
2023/10/31 13:51:49;;;;;;;1.70;0.65;;;;;;;;;;5913810;29;20062;-81
2023/10/31 13:54:50;;;;;;;0.98;0.50;;;;;;;;;;5913136;29;20515;-82
2023/10/31 13:57:52;;;;;;;4.32;0.77;;;;;;;;;;5933203;29;20056;-82
2023/10/31 14:00:54;;;;;;;1.27;0.70;;;;;;;;;;5935445;29;20066;-82
2023/10/31 14:03:56;;;;;;;0.60;0.50;;;;;;;;;;5901948;29;20071;-81
2023/10/31 14:06:58;;;;;;;2.05;0.65;;;;;;;;;;5934800;29;20059;-82
2023/10/31 14:10:00;;;;;;;0.85;0.50;;;;;;;;;;5922358;29;20141;-81
2023/10/31 14:13:02;;;;;;;1.48;0.40;;;;;;;;;;5931591;29;20067;-83
2023/10/31 14:16:05;;;;;;;0.82;0.40;;;;;;;;;;5929894;29;20076;-84
2023/10/31 14:19:07;;;;;;;2.28;0.50;;;;;;;;;;5925112;29;20427;-84
2023/10/31 14:22:09;;;;;;;0.63;0.52;;;;;;;;;;5920077;29;20055;-81
2023/10/31 14:25:11;;;;;;;1.52;0.50;;;;;;;;;;5936195;29;20043;-82
2023/10/31 14:28:12;;;;;;;1.25;0.40;;;;;;;;;;5951015;29;20455;-82
2023/10/31 14:31:15;;;;;;;1.50;0.50;;;;;;;;;;5941066;29;20085;-82
2023/10/31 14:34:16;;;;;;;0.70;0.65;;;;;;;;;;5940853;29;20061;-81
2023/10/31 14:37:18;;;;;;;1.35;0.43;;;;;;;;;;5948704;29;20055;-80
2023/10/31 14:40:20;;;;;;;1.33;0.50;;;;;;;;;;5949653;29;20396;-81
2023/10/31 14:43:21;;;;;;;1.38;0.60;;;;;;;;;;5932049;29;20051;-82
2023/10/31 14:46:23;;;;;;;1.90;0.60;;;;;;;;;;5915005;29;20407;-82
2023/10/31 14:49:25;;;;;;;2.85;0.60;;;;;;;;;;5929024;29;20096;-81
2023/10/31 14:52:26;;;;;;;1.00;0.50;;;;;;;;;;5910351;29;20063;-81
2023/10/31 14:55:28;;;;;;;3.15;0.77;;;;;;;;;;5936854;29;20062;-82
2023/10/31 14:58:30;;;;;;;2.85;0.68;;;;;;;;;;5932659;29;20390;-82
2023/10/31 15:01:32;;;;;;;2.55;0.68;;;;;;;;;;5921734;29;20062;-81
2023/10/31 15:04:34;;;;;;;1.55;0.60;;;;;;;;;;5935834;29;20051;-82
2023/10/31 15:07:37;;;;;;;1.58;0.60;;;;;;;;;;5932375;29;20102;-83
2023/10/31 15:10:39;;;;;;;2.58;0.70;;;;;;;;;;5940799;29;20047;-82
2023/10/31 15:13:41;;;;;;;0.70;0.60;;;;;;;;;;5938271;29;20043;-81
2023/10/31 15:16:43;;;;;;;1.23;0.77;;;;;;;;;;5951276;29;20055;-83
2023/10/31 15:19:44;;;;;;;2.83;0.63;;;;;;;;;;5926235;29;20201;-83
2023/10/31 15:22:46;;;;;;;1.45;0.93;;;;;;;;;;5923868;29;20534;-83
2023/10/31 15:25:48;;;;;;;2.15;0.90;;;;;;;;;;5916217;29;20055;-83
2023/10/31 15:28:51;;;;;;;1.48;0.88;;;;;;;;;;5927171;29;20051;-82
2023/10/31 15:31:55;;;;;;;1.75;1.10;;;;;;;;;;5930397;29;20104;-84
2023/10/31 15:34:57;;;;;;;1.10;0.80;;;;;;;;;;5931859;29;20055;-85
2023/10/31 15:37:59;;;;;;;2.55;0.80;;;;;;;;;;5930161;29;20054;-84
2023/10/31 15:41:02;;;;;;;1.02;0.93;;;;;;;;;;5917929;29;20527;-84
2023/10/31 15:44:17;;;;;;;1.27;1.00;;;;;;;;;;5927519;29;20058;-84
2023/10/31 15:47:19;;;;;;;0.90;0.80;;;;;;;;;;5930250;29;20055;-84
2023/10/31 15:50:22;;;;;;;1.60;1.23;;;;;;;;;;5913261;29;20055;-82
2023/10/31 15:53:25;;;;;;;2.90;1.60;;;;;;;;;;5926008;29;20055;-83
2023/10/31 15:56:28;;;;;;;3.10;2.90;;;;;;;;;;5927226;29;20055;-83
2023/10/31 15:59:30;;;;;;;2.17;1.10;;;;;;;;;;5909874;29;20051;-83
2023/10/31 16:02:32;;;;;;;1.00;0.90;;;;;;;;;;5911614;29;20074;-83
2023/10/31 16:05:35;;;;;;;;;;;;;;;;;;5928810;29;20066;-82
2023/10/31 16:08:39;;;;;;;3.60;1.40;;;;;;;;;;5927895;29;20493;-81
2023/10/31 16:11:41;;;;;;;2.25;0.90;;;;;;;;;;5908127;29;20139;-81
2023/10/31 16:14:43;;;;;;;2.47;1.30;;;;;;;;;;5911795;29;20051;-81
2023/10/31 16:17:45;;;;;;;4.38;1.67;;;;;;;;;;5919845;29;20043;-81
2023/10/31 16:20:49;;;;;;;5.55;1.90;;;;;;;;;;5925923;29;20246;-82
2023/10/31 16:23:51;;;;;;;3.63;1.30;;;;;;;;;;5923913;29;20059;-83
2023/10/31 16:26:52;;;;;;;4.77;1.83;;;;;;;;;;5891548;29;1106007;-82
2023/10/31 16:29:54;;;;;;;4.57;1.45;;;;;;;;;;5916821;29;20071;-82
2023/10/31 16:32:56;;;;;;;1.48;1.38;;;;;;;;;;5916303;29;20062;-81
2023/10/31 16:35:58;;;;;;;3.28;1.55;;;;;;;;;;5931367;29;20088;-82
2023/10/31 16:39:00;;;;;;;4.10;2.17;;;;;;;;;;5933121;29;20059;-80
2023/10/31 16:42:02;;;;;;;4.32;2.53;;;;;;;;;;5918304;29;20196;-81
2023/10/31 16:45:05;;;;;;;8.98;5.60;;;;;;;;;;5934849;29;20051;-81
2023/10/31 16:48:07;;;;;;;7.28;4.00;;;;;;;;;;5929803;29;20126;-81
2023/10/31 16:51:16;;;;;;;4.38;2.90;;;;;;;;;;5896564;29;20145;-82
2023/10/31 16:54:18;;;;;;;3.58;1.80;;;;;;;;;;5936158;29;20101;-82
2023/10/31 16:57:20;;;;;;;5.40;1.60;;;;;;;;;;5904363;29;20059;-80
2023/10/31 17:00:23;;;;;;;3.60;1.63;;;;;;;;;;5930014;29;20060;-80
2023/10/31 17:03:25;;;;;;;2.80;1.88;;;;;;;;;;5915749;29;20051;-80
2023/10/31 17:06:27;;;;;;;5.63;2.17;;;;;;;;;;5926402;29;20711;-81
2023/10/31 17:09:30;;;;;;;8.15;3.42;;;;;;;;;;5913880;29;20054;-81
2023/10/31 17:12:31;;;;;;;6.05;3.00;;;;;;;;;;5914205;29;20050;-80
2023/10/31 17:15:33;;;;;;;6.68;2.42;;;;;;;;;;5925376;29;20047;-81
2023/10/31 17:18:35;;;;;;;4.43;2.00;;;;;;;;;;5897769;29;20044;-81
2023/10/31 17:21:37;;;;;;;5.20;2.65;;;;;;;;;;5911161;29;20052;-81
2023/10/31 17:24:39;;;;;;;4.82;1.90;;;;;;;;;;5927704;29;20066;-80
2023/10/31 17:27:40;;;;;;;4.63;2.22;;;;;;;;;;5908844;29;20051;-80
2023/10/31 17:30:43;;;;;;;7.03;2.63;;;;;;;;;;5912169;29;20063;-79
2023/10/31 17:33:45;;;;;;;5.03;2.03;;;;;;;;;;5901382;29;20418;-81
2023/10/31 17:36:46;;;;;;;5.20;2.13;;;;;;;;;;5935082;29;20534;-80
2023/10/31 17:39:48;;;;;;;3.58;2.03;;;;;;;;;;5920924;29;20047;-80
2023/10/31 17:42:50;;;;;;;3.67;1.77;;;;;;;;;;5934319;29;20507;-83
2023/10/31 17:45:52;;;;;;;5.35;1.88;;;;;;;;;;5909312;29;20047;-81
2023/10/31 17:48:54;;;;;;;3.50;1.98;;;;;;;;;;5928087;29;20191;-81
2023/10/31 17:51:55;;;;;;;3.53;2.50;;;;;;;;;;5901788;29;20428;-82
2023/10/31 17:54:57;;;;;;;5.75;3.20;;;;;;;;;;5919349;29;20063;-82
2023/10/31 17:58:00;;;;;;;3.22;1.60;;;;;;;;;;5934401;29;20188;-81
2023/10/31 18:01:02;;;;;;;2.42;1.63;;;;;;;;;;5934725;29;20055;-81
2023/10/31 18:04:04;;;;;;;4.10;1.40;;;;;;;;;;5920122;29;20051;-81
2023/10/31 18:07:06;;;;;;;2.88;2.25;;;;;;;;;;5943297;29;20063;-82
2023/10/31 18:10:09;;;;;;;2.75;1.27;;;;;;;;;;5958385;29;20061;-82
2023/10/31 18:13:10;;;;;;;5.27;1.83;;;;;;;;;;5924543;29;20043;-81
2023/10/31 18:16:13;;;;;;;4.72;2.40;;;;;;;;;;5902724;29;20055;-81